Time;durP1;ratioP1;P1;durP2;ratioP2;P2;SDS_P1;SDS_P2;PMS_P1;PMS_P2;Temp;Humidity;BMP_temperature;BMP_pressure;BME280_temperature;BME280_humidity;BME280_pressure;Samples;Min_cycle;Max_cycle;Signal;HPM_P1;HPM_P2
2021/07/11 00:02:19;;;;;;;9.93;5.97;;;18.20;67.90;;;;;;5038051;28;20516;-72
2021/07/11 00:04:45;;;;;;;7.53;5.40;;;18.20;67.90;;;;;;5037964;28;20112;-72
2021/07/11 00:07:14;;;;;;;8.07;5.07;;;18.10;67.80;;;;;;5037880;28;20086;-72
2021/07/11 00:09:41;;;;;;;10.43;5.70;;;18.10;67.80;;;;;;5037745;28;20108;-72
2021/07/11 00:12:07;;;;;;;11.63;5.82;;;18.10;68.20;;;;;;5037911;28;20503;-71
2021/07/11 00:14:33;;;;;;;10.50;5.82;;;18.00;67.90;;;;;;5037683;28;20025;-72
2021/07/11 00:16:59;;;;;;;12.52;5.72;;;18.00;67.80;;;;;;5038118;28;20021;-71
2021/07/11 00:19:25;;;;;;;9.05;5.50;;;17.90;67.70;;;;;;5037481;28;20110;-71
2021/07/11 00:21:50;;;;;;;8.68;5.53;;;17.80;67.70;;;;;;5037507;28;20036;-71
2021/07/11 00:24:16;;;;;;;8.70;5.78;;;17.80;67.60;;;;;;5037494;28;20445;-72
2021/07/11 00:26:42;;;;;;;8.63;5.70;;;17.80;67.70;;;;;;5037605;28;20021;-71
2021/07/11 00:29:08;;;;;;;8.43;5.20;;;17.70;67.70;;;;;;5037435;28;20033;-71
2021/07/11 00:31:33;;;;;;;8.13;5.47;;;17.70;67.90;;;;;;5053055;28;20026;-72
2021/07/11 00:33:59;;;;;;;10.57;5.57;;;17.70;67.90;;;;;;5037502;28;20032;-71
2021/07/11 00:36:25;;;;;;;7.70;5.35;;;17.70;68.00;;;;;;5037534;28;20033;-72
2021/07/11 00:38:51;;;;;;;10.90;5.50;;;17.70;68.20;;;;;;5034754;28;20034;-72
2021/07/11 00:41:16;;;;;;;11.32;5.50;;;17.70;68.40;;;;;;5037638;28;20029;-72
2021/07/11 00:43:42;;;;;;;7.93;5.25;;;17.70;68.40;;;;;;5037356;28;20032;-72
2021/07/11 00:46:08;;;;;;;8.88;5.38;;;17.70;68.50;;;;;;5037518;28;20425;-72
2021/07/11 00:48:34;;;;;;;8.05;4.97;;;17.70;68.60;;;;;;5037361;28;20026;-72
2021/07/11 00:51:00;;;;;;;8.88;5.63;;;17.70;68.70;;;;;;5037194;28;20022;-72
2021/07/11 00:53:26;;;;;;;6.93;5.10;;;17.70;68.80;;;;;;5037255;28;20022;-72
2021/07/11 00:55:51;;;;;;;9.23;5.63;;;17.70;68.80;;;;;;5037419;28;20021;-72
2021/07/11 00:58:17;;;;;;;8.55;5.40;;;17.70;68.90;;;;;;5037211;28;20022;-72
2021/07/11 01:00:54;;;;;;;10.23;5.75;;;17.70;69.00;;;;;;5037373;28;20017;-72
2021/07/11 01:03:34;;;;;;;9.10;5.35;;;17.80;69.20;;;;;;5037357;28;20033;-72
2021/07/11 01:06:02;;;;;;;8.70;5.68;;;17.80;69.10;;;;;;5037257;28;20021;-72
2021/07/11 01:08:40;;;;;;;10.32;5.70;;;17.80;69.30;;;;;;5037136;28;20026;-72
2021/07/11 01:11:11;;;;;;;9.40;5.80;;;17.80;69.30;;;;;;5037220;28;20026;-72
2021/07/11 01:13:40;;;;;;;11.23;6.15;;;17.80;69.30;;;;;;5037283;28;20456;-72
2021/07/11 01:16:19;;;;;;;9.98;5.82;;;17.80;69.50;;;;;;5037026;28;20022;-72
2021/07/11 01:18:46;;;;;;;10.52;6.25;;;17.80;69.50;;;;;;5037116;28;20022;-72
2021/07/11 01:21:16;;;;;;;12.00;6.68;;;17.80;69.60;;;;;;5034520;28;20078;-72
2021/07/11 01:23:57;;;;;;;10.20;6.53;;;17.80;69.70;;;;;;5037086;28;20032;-72
2021/07/11 01:26:28;;;;;;;12.10;5.95;;;17.80;69.80;;;;;;5035558;28;20044;-72
2021/07/11 01:28:56;;;;;;;10.98;6.70;;;17.80;69.80;;;;;;5037025;28;20025;-72
2021/07/11 01:31:23;;;;;;;11.02;5.60;;;17.80;69.90;;;;;;5037024;28;20026;-72
2021/07/11 01:33:50;;;;;;;11.73;7.03;;;17.80;70.00;;;;;;5038823;28;20024;-72
2021/07/11 01:36:16;;;;;;;11.75;6.75;;;17.80;69.90;;;;;;5040590;28;20017;-72
2021/07/11 01:38:45;;;;;;;12.88;6.60;;;17.80;69.90;;;;;;5055974;28;20022;-72
2021/07/11 01:41:13;;;;;;;10.85;5.85;;;17.80;70.00;;;;;;5040660;28;20595;-72
2021/07/11 01:43:41;;;;;;;13.90;7.07;;;17.80;70.10;;;;;;5040654;28;20057;-72
2021/07/11 01:46:08;;;;;;;10.27;6.50;;;17.90;70.20;;;;;;5040666;28;20104;-72
2021/07/11 01:48:36;;;;;;;12.10;6.93;;;17.80;70.10;;;;;;5055748;28;20108;-72
2021/07/11 01:51:02;;;;;;;16.33;7.57;;;17.80;70.30;;;;;;5040244;28;20098;-72
2021/07/11 01:53:34;;;;;;;13.77;7.35;;;17.80;70.80;;;;;;5040402;28;20030;-72
2021/07/11 01:56:02;;;;;;;10.82;7.00;;;17.80;70.60;;;;;;5040413;28;20029;-72
2021/07/11 01:58:28;;;;;;;12.10;7.88;;;17.80;70.40;;;;;;5040227;28;20032;-72
2021/07/11 02:00:55;;;;;;;10.70;7.00;;;17.80;70.30;;;;;;5040272;28;20492;-72
2021/07/11 02:03:23;;;;;;;10.85;6.43;;;17.80;70.30;;;;;;5055550;28;20041;-72
2021/07/11 02:05:50;;;;;;;12.30;6.97;;;17.80;70.30;;;;;;5040042;28;20009;-72
2021/07/11 02:08:17;;;;;;;12.50;6.95;;;17.80;70.30;;;;;;5040234;28;20091;-72
2021/07/11 02:10:46;;;;;;;10.98;6.82;;;17.80;70.40;;;;;;5039914;28;20048;-72
2021/07/11 02:13:33;;;;;;;10.32;6.53;;;17.80;70.50;;;;;;5039942;28;20400;-72
2021/07/11 02:16:10;;;;;;;12.68;7.57;;;17.80;71.40;;;;;;5039367;28;20045;-72
2021/07/11 02:18:39;;;;;;;10.98;6.90;;;17.80;71.70;;;;;;5055241;28;20090;-72
2021/07/11 02:21:06;;;;;;;12.02;7.05;;;17.80;72.00;;;;;;5038184;28;20124;-72
2021/07/11 02:23:34;;;;;;;12.20;6.80;;;17.80;71.70;;;;;;5040137;28;20022;-72
2021/07/11 02:26:01;;;;;;;12.65;7.70;;;17.80;71.60;;;;;;5039628;28;20083;-72
2021/07/11 02:28:32;;;;;;;14.80;7.78;;;17.80;72.40;;;;;;5039873;28;20026;-72
2021/07/11 02:31:00;;;;;;;14.57;7.43;;;17.80;72.80;;;;;;5039640;28;20045;-72
2021/07/11 02:33:36;;;;;;;12.20;6.93;;;17.80;72.80;;;;;;5039705;28;20079;-72
2021/07/11 02:36:11;;;;;;;12.75;7.05;;;17.80;73.10;;;;;;5039575;28;20112;-72
2021/07/11 02:39:07;;;;;;;14.20;7.53;;;17.80;73.40;;;;;;5039658;28;20049;-72
2021/07/11 02:41:35;;;;;;;12.05;7.45;;;17.80;73.50;;;;;;5039639;28;20018;-72
2021/07/11 02:44:06;;;;;;;11.20;6.22;;;17.80;73.20;;;;;;5039414;28;20500;-72
2021/07/11 02:46:37;;;;;;;14.20;7.53;;;17.70;72.60;;;;;;5038746;28;20029;-72
2021/07/11 02:49:04;;;;;;;10.82;6.43;;;17.80;72.40;;;;;;5039151;28;20022;-72
2021/07/11 02:51:35;;;;;;;11.65;7.50;;;17.70;72.00;;;;;;5039289;28;20048;-72
2021/07/11 02:54:01;;;;;;;12.32;6.90;;;17.80;72.00;;;;;;5039504;28;20036;-72
2021/07/11 02:56:38;;;;;;;11.30;7.38;;;17.80;71.80;;;;;;5039275;28;20025;-72
2021/07/11 02:59:06;;;;;;;13.23;7.50;;;17.80;71.70;;;;;;5039607;28;20104;-72
2021/07/11 03:01:33;;;;;;;12.10;7.53;;;17.80;71.60;;;;;;5039099;28;20083;-72
2021/07/11 03:04:01;;;;;;;12.75;7.88;;;17.70;71.50;;;;;;5039472;28;20022;-72
2021/07/11 03:06:26;;;;;;;13.50;7.80;;;17.80;71.40;;;;;;5038776;28;20116;-72
2021/07/11 03:08:52;;;;;;;13.07;8.43;;;17.80;71.40;;;;;;5039283;28;20068;-72
2021/07/11 03:11:19;;;;;;;13.07;7.78;;;17.80;71.70;;;;;;5038811;28;20081;-72
2021/07/11 03:13:46;;;;;;;13.60;8.02;;;17.80;71.60;;;;;;5039148;28;20064;-72
2021/07/11 03:16:12;;;;;;;11.30;7.28;;;17.80;71.50;;;;;;5038818;28;20055;-72
2021/07/11 03:18:38;;;;;;;12.88;7.22;;;17.80;71.60;;;;;;5038905;28;20017;-72
2021/07/11 03:21:08;;;;;;;11.90;7.22;;;17.80;71.50;;;;;;5038323;28;20136;-72
2021/07/11 03:23:35;;;;;;;13.63;7.30;;;17.80;71.60;;;;;;5039137;28;20388;-72
2021/07/11 03:26:01;;;;;;;12.40;7.60;;;17.80;71.50;;;;;;5037192;28;20021;-72
2021/07/11 03:28:30;;;;;;;12.23;7.25;;;17.80;71.40;;;;;;5038903;28;20018;-72
2021/07/11 03:30:58;;;;;;;13.38;7.80;;;17.80;71.40;;;;;;5038426;28;20029;-72
2021/07/11 03:33:26;;;;;;;14.75;7.00;;;17.80;71.40;;;;;;5038817;28;20473;-72
2021/07/11 03:35:59;;;;;;;12.95;7.85;;;17.80;71.50;;;;;;5038261;28;20075;-72
2021/07/11 03:38:33;;;;;;;12.48;7.45;;;17.80;71.40;;;;;;5038580;28;20657;-72
2021/07/11 03:41:01;;;;;;;10.52;7.18;;;17.80;71.50;;;;;;5038137;28;20093;-72
2021/07/11 03:43:28;;;;;;;12.60;6.72;;;17.80;71.50;;;;;;5038441;28;20484;-72
2021/07/11 03:46:00;;;;;;;13.57;7.28;;;17.80;71.50;;;;;;5038467;28;20057;-72
2021/07/11 03:48:32;;;;;;;13.30;7.80;;;17.80;71.50;;;;;;5038289;28;20023;-72
2021/07/11 03:51:03;;;;;;;16.05;7.88;;;17.80;71.70;;;;;;5053484;28;20417;-72
2021/07/11 03:53:34;;;;;;;15.02;8.85;;;17.80;71.80;;;;;;5038208;28;20017;-72
2021/07/11 03:56:01;;;;;;;12.40;7.68;;;17.80;71.90;;;;;;5037896;28;20022;-72
2021/07/11 03:58:31;;;;;;;13.38;7.80;;;17.80;72.00;;;;;;5038078;28;20021;-72
2021/07/11 04:00:57;;;;;;;16.13;7.50;;;17.80;71.80;;;;;;5038103;28;20084;-72
2021/07/11 04:03:25;;;;;;;11.00;7.28;;;17.80;71.70;;;;;;5038241;28;20026;-72
2021/07/11 04:05:51;;;;;;;14.25;7.93;;;17.80;71.60;;;;;;5037981;28;20029;-72
2021/07/11 04:08:20;;;;;;;12.57;7.28;;;17.80;71.70;;;;;;5037914;28;20026;-72
2021/07/11 04:10:47;;;;;;;15.48;8.55;;;17.80;71.70;;;;;;5037756;28;20041;-72
2021/07/11 04:13:15;;;;;;;18.20;9.25;;;17.80;71.60;;;;;;5037797;28;20073;-72
2021/07/11 04:15:43;;;;;;;13.40;8.10;;;17.80;72.20;;;;;;5038035;28;20365;-72
2021/07/11 04:18:15;;;;;;;11.88;8.48;;;17.80;72.00;;;;;;5037616;28;20021;-72
2021/07/11 04:20:45;;;;;;;14.27;8.60;;;17.80;71.90;;;;;;5037371;28;20053;-72
2021/07/11 04:23:11;;;;;;;13.82;8.60;;;17.80;72.00;;;;;;5037792;28;20392;-72
2021/07/11 04:25:41;;;;;;;15.48;8.90;;;17.80;72.20;;;;;;5037634;28;20053;-72
2021/07/11 04:28:08;;;;;;;15.63;8.40;;;17.80;72.60;;;;;;5037759;28;20117;-72
2021/07/11 04:30:35;;;;;;;13.05;8.25;;;17.80;72.60;;;;;;5037466;28;20025;-72
2021/07/11 04:33:01;;;;;;;13.07;8.73;;;17.80;72.30;;;;;;5037629;28;20442;-72
2021/07/11 04:35:28;;;;;;;12.68;7.50;;;17.80;72.00;;;;;;5037230;28;20017;-72
2021/07/11 04:37:54;;;;;;;13.63;7.68;;;17.80;71.90;;;;;;5033082;28;20018;-72
2021/07/11 04:40:19;;;;;;;12.73;7.57;;;17.80;71.80;;;;;;5031252;28;20105;-72
2021/07/11 04:42:46;;;;;;;14.43;8.32;;;17.80;71.80;;;;;;5037569;28;20079;-72
2021/07/11 04:45:12;;;;;;;15.75;8.68;;;17.80;71.90;;;;;;5037627;28;20060;-72
2021/07/11 04:47:38;;;;;;;16.58;9.27;;;17.80;72.70;;;;;;5052896;28;20116;-72
2021/07/11 04:50:06;;;;;;;14.80;9.07;;;17.80;72.10;;;;;;5037091;28;20083;-72
2021/07/11 04:52:32;;;;;;;18.08;8.57;;;17.80;72.30;;;;;;5037374;28;20068;-72
2021/07/11 04:54:58;;;;;;;16.00;8.38;;;17.80;72.10;;;;;;5037310;28;20014;-72
2021/07/11 04:57:24;;;;;;;11.95;7.95;;;17.80;71.90;;;;;;5037429;28;20018;-72
2021/07/11 04:59:50;;;;;;;13.18;8.38;;;17.80;71.90;;;;;;5037257;28;20032;-72
2021/07/11 05:02:16;;;;;;;12.57;8.27;;;17.80;71.90;;;;;;5037388;28;20034;-72
2021/07/11 05:04:41;;;;;;;12.45;8.40;;;17.80;72.00;;;;;;5037231;28;20492;-72
2021/07/11 05:07:07;;;;;;;11.95;8.18;;;17.80;72.00;;;;;;5052481;28;20040;-72
2021/07/11 05:09:33;;;;;;;11.65;7.55;;;17.80;71.90;;;;;;5040164;28;20037;-72
2021/07/11 05:11:59;;;;;;;12.10;7.55;;;17.80;71.90;;;;;;5041251;28;20022;-72
2021/07/11 05:14:25;;;;;;;14.80;8.43;;;17.80;72.00;;;;;;5041147;28;20081;-72
2021/07/11 05:16:50;;;;;;;17.67;9.20;;;17.80;72.10;;;;;;5041347;28;20038;-72
2021/07/11 05:19:16;;;;;;;14.80;8.85;;;17.80;72.30;;;;;;5040760;28;20091;-72
2021/07/11 05:21:42;;;;;;;16.13;8.65;;;17.80;72.20;;;;;;5040903;28;20052;-72
2021/07/11 05:24:08;;;;;;;14.98;8.52;;;17.80;72.10;;;;;;5040901;28;20105;-72
2021/07/11 05:26:34;;;;;;;15.38;7.80;;;17.90;72.40;;;;;;5041253;28;20037;-72
2021/07/11 05:28:59;;;;;;;13.70;8.05;;;17.80;72.20;;;;;;5040740;28;20037;-72
2021/07/11 05:31:25;;;;;;;14.23;8.52;;;17.90;72.30;;;;;;5041139;28;20503;-71
2021/07/11 05:33:51;;;;;;;12.73;8.32;;;17.90;72.40;;;;;;5040797;28;20476;-72
2021/07/11 05:36:17;;;;;;;15.60;8.55;;;17.90;72.40;;;;;;5040855;28;20365;-72
2021/07/11 05:38:42;;;;;;;16.50;9.27;;;17.90;72.60;;;;;;5040646;28;20071;-72
2021/07/11 05:41:09;;;;;;;17.38;8.85;;;18.00;73.10;;;;;;5040988;28;20469;-72
2021/07/11 05:43:35;;;;;;;17.73;9.45;;;17.90;73.50;;;;;;5040671;28;20017;-72
2021/07/11 05:46:01;;;;;;;15.35;9.32;;;18.00;73.40;;;;;;5040875;28;20060;-72
2021/07/11 05:48:27;;;;;;;17.48;9.38;;;18.00;73.60;;;;;;5040507;28;20014;-72
2021/07/11 05:50:53;;;;;;;18.52;10.02;;;18.00;73.90;;;;;;5040475;28;20033;-72
2021/07/11 05:53:20;;;;;;;17.35;8.80;;;18.00;74.00;;;;;;5040548;28;20049;-72
2021/07/11 05:55:45;;;;;;;18.25;9.48;;;18.10;74.00;;;;;;5040644;28;20028;-72
2021/07/11 05:58:11;;;;;;;14.05;9.35;;;18.10;73.90;;;;;;5040354;28;20443;-72
2021/07/11 06:00:37;;;;;;;20.02;9.93;;;18.10;73.70;;;;;;5040335;28;20100;-72
2021/07/11 06:03:03;;;;;;;17.00;10.40;;;18.10;74.10;;;;;;5040421;28;20021;-72
2021/07/11 06:05:29;;;;;;;15.95;8.90;;;18.10;74.20;;;;;;5040182;28;20038;-72
2021/07/11 06:07:55;;;;;;;15.88;8.82;;;18.10;74.20;;;;;;5040361;28;20081;-72
2021/07/11 06:10:21;;;;;;;15.32;9.35;;;18.20;74.00;;;;;;5055622;28;20034;-72
2021/07/11 06:12:47;;;;;;;15.75;8.30;;;18.20;74.20;;;;;;5040028;28;20017;-72
2021/07/11 06:15:13;;;;;;;15.93;8.32;;;18.20;74.00;;;;;;5040324;28;20029;-72
2021/07/11 06:17:39;;;;;;;14.07;8.82;;;18.20;74.00;;;;;;5039924;28;20026;-72
2021/07/11 06:20:10;;;;;;;19.45;9.35;;;18.30;74.20;;;;;;5039263;28;20424;-72
2021/07/11 06:22:38;;;;;;;16.05;10.00;;;18.30;74.20;;;;;;5039873;28;20495;-72
2021/07/11 06:25:06;;;;;;;18.10;9.00;;;18.30;74.10;;;;;;5039821;28;20036;-72
2021/07/11 06:27:41;;;;;;;15.88;8.77;;;18.30;74.90;;;;;;5039962;28;20049;-72
2021/07/11 06:30:15;;;;;;;15.88;9.18;;;18.40;74.30;;;;;;5039884;28;20029;-72
2021/07/11 06:32:43;;;;;;;15.02;8.75;;;18.40;74.30;;;;;;5039647;28;20021;-72
2021/07/11 06:35:12;;;;;;;17.25;8.65;;;18.40;74.40;;;;;;5039527;28;20025;-72
2021/07/11 06:37:38;;;;;;;13.82;8.20;;;18.50;74.40;;;;;;5039600;28;20028;-72
2021/07/11 06:40:06;;;;;;;17.42;8.57;;;18.50;74.40;;;;;;5039474;28;20108;-72
2021/07/11 06:42:31;;;;;;;17.98;8.20;;;18.50;74.40;;;;;;5039579;28;20040;-72
2021/07/11 06:44:57;;;;;;;13.98;8.95;;;18.50;74.20;;;;;;5039633;28;20033;-72
2021/07/11 06:47:23;;;;;;;15.63;8.57;;;18.50;74.20;;;;;;5039351;28;20096;-72
2021/07/11 06:49:49;;;;;;;15.60;8.85;;;18.50;74.20;;;;;;5034814;28;20030;-72
2021/07/11 06:52:14;;;;;;;18.90;9.27;;;18.50;74.40;;;;;;5037703;28;20082;-72
2021/07/11 06:54:40;;;;;;;13.05;7.72;;;18.50;74.40;;;;;;5039559;28;20021;-72
2021/07/11 06:57:06;;;;;;;17.08;8.82;;;18.50;74.50;;;;;;5039088;28;20018;-72
2021/07/11 06:59:32;;;;;;;15.25;7.38;;;18.60;74.80;;;;;;5039285;28;20036;-72
2021/07/11 07:01:57;;;;;;;13.88;6.55;;;18.70;75.00;;;;;;5039117;28;20120;-72
2021/07/11 07:04:23;;;;;;;15.00;6.82;;;18.70;74.90;;;;;;5039224;28;20038;-72
2021/07/11 07:06:51;;;;;;;11.82;5.93;;;18.70;74.80;;;;;;5038849;28;20104;-72
2021/07/11 07:09:17;;;;;;;11.77;6.10;;;18.80;74.70;;;;;;5038926;28;20424;-72
2021/07/11 07:11:43;;;;;;;18.40;6.80;;;18.80;74.70;;;;;;5038841;28;20017;-72
2021/07/11 07:14:08;;;;;;;11.77;7.07;;;18.80;74.70;;;;;;5038989;28;20028;-72
2021/07/11 07:16:34;;;;;;;9.93;6.40;;;18.80;74.80;;;;;;5038817;28;20014;-72
2021/07/11 07:19:00;;;;;;;7.45;5.97;;;18.90;74.90;;;;;;5038612;28;20029;-72
2021/07/11 07:21:26;;;;;;;7.55;5.70;;;19.00;75.30;;;;;;5038563;28;20083;-72
2021/07/11 07:23:52;;;;;;;10.90;5.70;;;19.20;76.10;;;;;;5038749;28;20029;-72
2021/07/11 07:26:18;;;;;;;10.35;5.90;;;19.40;76.30;;;;;;5038582;28;20084;-72
2021/07/11 07:28:43;;;;;;;11.02;5.53;;;19.50;76.00;;;;;;5038918;28;20026;-72
2021/07/11 07:31:09;;;;;;;10.10;5.60;;;19.70;75.50;;;;;;5037871;28;20504;-72
2021/07/11 07:33:35;;;;;;;9.75;4.90;;;19.70;74.60;;;;;;5039059;28;20427;-72
2021/07/11 07:36:00;;;;;;;9.48;5.82;;;19.70;74.10;;;;;;5038493;28;20032;-72
2021/07/11 07:38:26;;;;;;;7.95;4.82;;;19.70;73.70;;;;;;5038668;28;20075;-71
2021/07/11 07:40:52;;;;;;;8.57;4.47;;;19.60;73.50;;;;;;5038310;28;20048;-72
2021/07/11 07:43:18;;;;;;;10.20;5.45;;;19.60;73.20;;;;;;5038594;28;20029;-72
2021/07/11 07:45:44;;;;;;;7.88;4.55;;;19.50;73.50;;;;;;5038236;28;20431;-72
2021/07/11 07:48:12;;;;;;;9.70;4.70;;;19.50;73.60;;;;;;5038452;28;20037;-71
2021/07/11 07:50:38;;;;;;;7.25;4.82;;;19.60;73.80;;;;;;5037929;28;20014;-72
2021/07/11 07:53:04;;;;;;;9.35;4.90;;;19.60;73.60;;;;;;5038421;28;20040;-74
2021/07/11 07:55:31;;;;;;;6.82;4.38;;;19.60;73.70;;;;;;5038025;28;20025;-72
2021/07/11 07:57:58;;;;;;;7.32;4.60;;;19.60;73.30;;;;;;5038190;28;20476;-68
2021/07/11 08:00:25;;;;;;;7.63;4.60;;;19.60;73.60;;;;;;5038058;28;20030;-70
2021/07/11 08:02:51;;;;;;;8.25;4.60;;;19.70;74.00;;;;;;5038342;28;20029;-70
2021/07/11 08:05:17;;;;;;;9.90;5.55;;;19.80;74.10;;;;;;5037679;28;20032;-68
2021/07/11 08:07:45;;;;;;;7.57;4.25;;;19.80;73.80;;;;;;5038016;28;20030;-70
2021/07/11 08:10:15;;;;;;;6.85;4.20;;;19.90;73.90;;;;;;5037634;28;20113;-72
2021/07/11 08:12:42;;;;;;;7.35;4.65;;;20.00;74.00;;;;;;5038184;28;20029;-71
2021/07/11 08:15:09;;;;;;;8.63;4.93;;;20.00;74.10;;;;;;5038027;28;20043;-71
2021/07/11 08:17:36;;;;;;;7.40;5.07;;;20.00;73.90;;;;;;5037782;28;20026;-73
2021/07/11 08:20:04;;;;;;;9.90;5.10;;;20.10;74.00;;;;;;5037303;28;20095;-73
2021/07/11 08:22:30;;;;;;;11.05;5.80;;;20.10;74.00;;;;;;5037702;28;20018;-68
2021/07/11 08:24:55;;;;;;;6.80;5.07;;;20.10;73.90;;;;;;5037560;28;20032;-68
2021/07/11 08:27:22;;;;;;;9.00;5.15;;;20.20;73.90;;;;;;5037612;28;20018;-68
2021/07/11 08:29:51;;;;;;;7.60;4.88;;;20.20;73.80;;;;;;5037143;28;20237;-70
2021/07/11 08:32:18;;;;;;;11.50;5.30;;;20.20;74.00;;;;;;5037254;28;20025;-72
2021/07/11 08:34:43;;;;;;;8.55;5.00;;;20.30;74.30;;;;;;5037926;28;20046;-73
2021/07/11 08:37:09;;;;;;;8.32;4.93;;;20.40;74.50;;;;;;5037174;28;20021;-73
2021/07/11 08:39:35;;;;;;;9.93;6.25;;;20.60;76.00;;;;;;5037526;28;20389;-71
2021/07/11 08:42:01;;;;;;;10.50;6.35;;;21.00;76.80;;;;;;5037300;28;20495;-71
2021/07/11 08:44:27;;;;;;;22.00;15.45;;;21.20;74.60;;;;;;5037668;28;20373;-71
2021/07/11 08:46:54;;;;;;;12.07;8.38;;;21.40;74.90;;;;;;5037257;28;20025;-70
2021/07/11 08:49:23;;;;;;;9.13;6.10;;;21.40;74.50;;;;;;5037257;28;20033;-72
2021/07/11 08:51:55;;;;;;;8.85;5.15;;;21.40;73.20;;;;;;5036952;28;20025;-72
2021/07/11 08:54:21;;;;;;;8.95;4.93;;;21.20;71.10;;;;;;5037251;28;20101;-72
2021/07/11 08:56:47;;;;;;;7.75;5.35;;;21.20;71.70;;;;;;5037061;28;20488;-72
2021/07/11 08:59:12;;;;;;;8.75;5.43;;;21.20;71.90;;;;;;5037308;28;20033;-72
2021/07/11 09:01:38;;;;;;;8.40;5.20;;;21.20;72.10;;;;;;5037051;28;20128;-72
2021/07/11 09:04:11;;;;;;;7.32;5.00;;;21.20;71.60;;;;;;5037293;28;20029;-73
2021/07/11 09:06:52;;;;;;;6.70;4.85;;;21.30;72.40;;;;;;5052266;28;20018;-75
2021/07/11 09:09:39;;;;;;;9.75;4.80;;;21.30;72.00;;;;;;5052776;28;20052;-73
2021/07/11 09:12:08;;;;;;;9.77;5.20;;;21.30;71.60;;;;;;5037172;28;20651;-77
2021/07/11 09:14:43;;;;;;;12.07;5.25;;;21.30;72.00;;;;;;5036919;28;20033;-78
2021/07/11 09:17:11;;;;;;;9.65;5.07;;;21.30;72.30;;;;;;5037189;28;20018;-77
2021/07/11 09:19:48;;;;;;;11.25;5.03;;;21.30;72.90;;;;;;5033935;28;20132;-76
2021/07/11 09:22:19;;;;;;;8.82;4.28;;;21.50;73.30;;;;;;5036846;28;20085;-78
2021/07/11 09:24:53;;;;;;;6.85;4.72;;;21.70;73.00;;;;;;5036900;28;20060;-72
2021/07/11 09:27:22;;;;;;;7.55;4.47;;;22.00;74.20;;;;;;5037118;28;20033;-72
2021/07/11 09:29:49;;;;;;;7.40;3.78;;;22.20;73.60;;;;;;5037170;28;20127;-75
2021/07/11 09:32:22;;;;;;;7.13;4.07;;;22.40;70.80;;;;;;5036811;28;20017;-74
2021/07/11 09:34:48;;;;;;;14.93;10.43;;;22.40;70.00;;;;;;5036682;28;20034;-73
2021/07/11 09:37:16;;;;;;;21.48;16.63;;;22.40;70.50;;;;;;5036285;28;20098;-73
2021/07/11 09:39:58;;;;;;;9.05;5.47;;;22.40;70.60;;;;;;5036505;28;20056;-73
2021/07/11 09:42:33;;;;;;;6.85;4.47;;;22.30;68.60;;;;;;5036858;28;20018;-73
2021/07/11 09:45:01;;;;;;;6.90;4.30;;;22.30;68.00;;;;;;5036639;28;20040;-72
2021/07/11 09:47:28;;;;;;;8.05;4.05;;;22.40;69.70;;;;;;5036652;28;20037;-72
2021/07/11 09:50:09;;;;;;;7.50;4.32;;;22.50;70.70;;;;;;5036479;28;20396;-74
2021/07/11 09:52:39;;;;;;;6.43;4.10;;;22.60;71.00;;;;;;5036866;28;20056;-72
2021/07/11 09:55:07;;;;;;;7.20;3.80;;;22.60;69.90;;;;;;5038577;28;20025;-72
2021/07/11 09:57:36;;;;;;;7.00;3.85;;;22.40;66.70;;;;;;5040499;28;20059;-72
2021/07/11 10:00:32;;;;;;;7.15;4.50;;;22.30;67.90;;;;;;5040252;28;20025;-70
2021/07/11 10:03:00;;;;;;;6.80;4.45;;;22.20;69.00;;;;;;5039865;28;20033;-72
2021/07/11 10:05:26;;;;;;;9.25;4.53;;;22.20;69.10;;;;;;5040037;28;20539;-71
2021/07/11 10:07:53;;;;;;;6.13;4.47;;;22.20;69.30;;;;;;5039701;28;20025;-71
2021/07/11 10:10:26;;;;;;;8.77;4.25;;;22.30;68.80;;;;;;5040110;28;20033;-72
2021/07/11 10:12:53;;;;;;;7.40;4.38;;;22.20;68.40;;;;;;5040311;28;20029;-71
2021/07/11 10:15:21;;;;;;;8.07;4.68;;;22.10;67.00;;;;;;5040199;28;20484;-71
2021/07/11 10:18:08;;;;;;;6.85;4.05;;;22.10;67.60;;;;;;5040201;28;20137;-71
2021/07/11 10:20:47;;;;;;;8.73;4.50;;;22.00;67.80;;;;;;5031179;28;20111;-71
2021/07/11 10:23:27;;;;;;;7.97;4.60;;;21.90;67.70;;;;;;5040009;28;20029;-71
2021/07/11 10:25:59;;;;;;;8.40;4.53;;;21.80;68.50;;;;;;5039919;28;20084;-71
2021/07/11 10:28:28;;;;;;;8.02;4.63;;;21.70;68.60;;;;;;5040132;28;20029;-71
2021/07/11 10:30:54;;;;;;;8.52;4.90;;;21.60;68.30;;;;;;5039632;28;20391;-72
2021/07/11 10:33:22;;;;;;;7.18;5.32;;;21.50;68.30;;;;;;5039787;28;20490;-71
2021/07/11 10:35:59;;;;;;;7.05;4.93;;;21.50;68.60;;;;;;5039458;28;20026;-71
2021/07/11 10:38:49;;;;;;;6.45;4.80;;;21.40;68.70;;;;;;5039806;28;20021;-71
2021/07/11 10:41:30;;;;;;;7.18;5.13;;;21.30;68.70;;;;;;5039836;28;20108;-71
2021/07/11 10:44:08;;;;;;;7.45;5.35;;;21.30;69.20;;;;;;5039607;28;20041;-71
2021/07/11 10:46:41;;;;;;;7.72;4.57;;;21.30;69.10;;;;;;5039560;28;20030;-71
2021/07/11 10:49:13;;;;;;;7.10;5.07;;;21.20;69.30;;;;;;5054645;28;20021;-72
2021/07/11 10:51:44;;;;;;;7.85;4.95;;;21.30;69.40;;;;;;5039176;28;20180;-71
2021/07/11 10:54:29;;;;;;;10.52;6.45;;;21.30;69.00;;;;;;5039753;28;20044;-71
2021/07/11 10:57:00;;;;;;;12.85;8.68;;;21.30;68.60;;;;;;5039215;28;20021;-71
2021/07/11 10:59:26;;;;;;;52.13;46.63;;;21.20;68.70;;;;;;5039354;28;20480;-71
2021/07/11 11:01:52;;;;;;;59.53;36.80;;;21.20;69.00;;;;;;5037969;28;20129;-71
2021/07/11 11:04:18;;;;;;;31.58;19.27;;;21.20;69.40;;;;;;5038460;28;20022;-71
2021/07/11 11:06:44;;;;;;;24.48;15.07;;;21.20;69.50;;;;;;5037645;28;20505;-71
2021/07/11 11:09:10;;;;;;;12.13;8.93;;;21.20;69.20;;;;;;5038675;28;20033;-70
2021/07/11 11:11:35;;;;;;;8.35;6.15;;;21.30;69.40;;;;;;5038875;28;20032;-70
2021/07/11 11:14:03;;;;;;;11.40;5.97;;;21.20;69.40;;;;;;5054434;28;20020;-71
2021/07/11 11:16:45;;;;;;;9.55;5.68;;;21.20;69.40;;;;;;5054222;28;20029;-71
2021/07/11 11:19:14;;;;;;;7.55;5.38;;;21.20;69.60;;;;;;5038842;28;20042;-71
2021/07/11 11:21:40;;;;;;;8.55;5.22;;;21.20;69.20;;;;;;5026105;28;20021;-71
2021/07/11 11:24:06;;;;;;;10.40;5.43;;;21.10;69.20;;;;;;5038670;28;20022;-71
2021/07/11 11:26:33;;;;;;;7.63;5.15;;;21.10;69.40;;;;;;5038829;28;20024;-71
2021/07/11 11:29:00;;;;;;;9.02;5.63;;;21.10;69.60;;;;;;5038443;28;20021;-71
2021/07/11 11:31:33;;;;;;;9.43;5.47;;;21.10;69.50;;;;;;5038690;28;20489;-70
2021/07/11 11:34:11;;;;;;;9.10;5.50;;;21.20;69.80;;;;;;5038565;28;20068;-70
2021/07/11 11:36:48;;;;;;;9.68;5.75;;;21.20;69.60;;;;;;5038431;28;20033;-70
2021/07/11 11:39:18;;;;;;;8.55;5.95;;;21.20;69.50;;;;;;5038375;28;20026;-70
2021/07/11 11:41:44;;;;;;;9.25;6.10;;;21.20;69.70;;;;;;5038395;28;20030;-70
2021/07/11 11:44:13;;;;;;;8.77;5.68;;;21.20;70.00;;;;;;5038391;28;20022;-70
2021/07/11 11:46:40;;;;;;;8.43;5.40;;;21.30;70.30;;;;;;5038566;28;20029;-70
2021/07/11 11:49:08;;;;;;;10.98;5.88;;;21.30;70.60;;;;;;5038078;28;20053;-70
2021/07/11 11:51:41;;;;;;;11.90;5.95;;;21.50;70.70;;;;;;5038266;28;20080;-69
2021/07/11 11:54:07;;;;;;;8.98;5.88;;;21.50;70.50;;;;;;5038272;28;20060;-69
2021/07/11 11:56:36;;;;;;;10.85;6.07;;;21.70;70.30;;;;;;5038087;28;20034;-69
2021/07/11 11:59:06;;;;;;;11.70;7.10;;;21.70;70.70;;;;;;5037981;28;20113;-69
2021/07/11 12:01:36;;;;;;;14.60;8.73;;;21.70;69.80;;;;;;5038170;28;20065;-70
2021/07/11 12:04:14;;;;;;;12.57;7.70;;;21.70;69.70;;;;;;5038752;28;20025;-69
2021/07/11 12:06:46;;;;;;;11.23;6.38;;;21.70;69.60;;;;;;5037757;28;20030;-70
2021/07/11 12:09:12;;;;;;;8.02;5.78;;;21.80;70.00;;;;;;5038127;28;20021;-69
2021/07/11 12:11:38;;;;;;;8.50;6.30;;;21.80;70.30;;;;;;5037775;28;20025;-70
2021/07/11 12:14:09;;;;;;;9.60;6.22;;;21.90;69.90;;;;;;5038052;28;20384;-68
2021/07/11 12:16:35;;;;;;;10.35;6.13;;;21.80;69.00;;;;;;5038048;28;20025;-67
2021/07/11 12:19:06;;;;;;;9.85;5.57;;;21.90;69.60;;;;;;5037420;28;20036;-67
2021/07/11 12:21:32;;;;;;;12.35;6.07;;;21.90;69.20;;;;;;5037542;28;20104;-67
2021/07/11 12:24:04;;;;;;;9.65;6.03;;;22.00;69.60;;;;;;5037789;28;20077;-70
2021/07/11 12:26:31;;;;;;;9.02;5.80;;;22.00;69.50;;;;;;5025039;28;20025;-69
2021/07/11 12:28:58;;;;;;;11.73;5.43;;;22.10;69.30;;;;;;5037666;28;20032;-72
2021/07/11 12:31:29;;;;;;;12.93;6.45;;;22.20;68.60;;;;;;5053011;28;20021;-69
2021/07/11 12:34:04;;;;;;;14.63;8.50;;;22.30;68.60;;;;;;5037608;28;20026;-71
2021/07/11 12:36:31;;;;;;;13.88;8.70;;;22.40;68.80;;;;;;5037434;28;20439;-75
2021/07/11 12:38:58;;;;;;;11.15;7.18;;;22.50;69.40;;;;;;5037657;28;20021;-71
2021/07/11 12:41:26;;;;;;;10.20;6.15;;;22.60;69.20;;;;;;5037611;28;20124;-72
2021/07/11 12:43:57;;;;;;;9.90;7.03;;;22.60;68.40;;;;;;5037353;28;20400;-71
2021/07/11 12:46:28;;;;;;;10.02;5.72;;;22.60;68.80;;;;;;5037306;28;20029;-72
2021/07/11 12:49:10;;;;;;;11.85;5.88;;;22.50;67.50;;;;;;5037477;28;20021;-70